sensor_id;sensor_type;location;lat;lon;timestamp;pressure;altitude;pressure_sealevel;temperature;humidity
47811;BME280;33575;52.600;7.318;2023-04-29T00:00:54;101022.47;;;10.36;100.00
47811;BME280;33575;52.600;7.318;2023-04-29T00:03:24;101026.84;;;10.22;100.00
47811;BME280;33575;52.600;7.318;2023-04-29T00:05:54;101024.28;;;10.31;100.00
47811;BME280;33575;52.600;7.318;2023-04-29T00:08:24;101028.28;;;10.41;99.17
47811;BME280;33575;52.600;7.318;2023-04-29T00:10:55;101032.15;;;10.26;100.00
47811;BME280;33575;52.600;7.318;2023-04-29T00:13:25;101030.26;;;10.37;100.00
47811;BME280;33575;52.600;7.318;2023-04-29T00:15:56;101037.86;;;10.20;100.00
47811;BME280;33575;52.600;7.318;2023-04-29T00:18:26;101042.22;;;10.27;100.00
47811;BME280;33575;52.600;7.318;2023-04-29T00:20:57;101042.38;;;10.10;100.00
47811;BME280;33575;52.600;7.318;2023-04-29T00:23:27;101039.76;;;10.29;100.00
47811;BME280;33575;52.600;7.318;2023-04-29T00:25:58;101044.38;;;10.28;100.00
47811;BME280;33575;52.600;7.318;2023-04-29T00:28:28;101046.76;;;10.06;100.00
47811;BME280;33575;52.600;7.318;2023-04-29T00:30:58;101051.02;;;9.81;100.00
47811;BME280;33575;52.600;7.318;2023-04-29T00:33:29;101056.49;;;9.97;100.00
47811;BME280;33575;52.600;7.318;2023-04-29T00:35:59;101060.21;;;9.80;100.00
47811;BME280;33575;52.600;7.318;2023-04-29T00:38:29;101064.42;;;9.42;100.00
47811;BME280;33575;52.600;7.318;2023-04-29T00:41:00;101068.87;;;9.46;100.00
47811;BME280;33575;52.600;7.318;2023-04-29T00:43:30;101067.92;;;9.41;100.00
47811;BME280;33575;52.600;7.318;2023-04-29T00:46:00;101069.59;;;9.33;100.00
47811;BME280;33575;52.600;7.318;2023-04-29T00:48:31;101078.05;;;9.14;100.00
47811;BME280;33575;52.600;7.318;2023-04-29T00:51:02;101080.53;;;9.27;100.00
47811;BME280;33575;52.600;7.318;2023-04-29T00:53:31;101080.21;;;9.54;100.00
47811;BME280;33575;52.600;7.318;2023-04-29T00:56:02;101085.82;;;9.43;100.00
47811;BME280;33575;52.600;7.318;2023-04-29T00:58:32;101090.67;;;9.59;100.00
47811;BME280;33575;52.600;7.318;2023-04-29T01:01:03;101096.89;;;9.48;100.00
47811;BME280;33575;52.600;7.318;2023-04-29T01:03:34;101099.44;;;9.48;100.00
47811;BME280;33575;52.600;7.318;2023-04-29T01:06:12;101101.61;;;9.73;100.00
47811;BME280;33575;52.600;7.318;2023-04-29T01:08:43;101107.32;;;9.70;100.00
47811;BME280;33575;52.600;7.318;2023-04-29T01:11:08;101113.00;;;9.77;100.00
47811;BME280;33575;52.600;7.318;2023-04-29T01:13:42;101111.37;;;9.61;100.00
47811;BME280;33575;52.600;7.318;2023-04-29T01:16:10;101117.24;;;9.37;100.00
47811;BME280;33575;52.600;7.318;2023-04-29T01:18:40;101118.48;;;9.26;100.00
47811;BME280;33575;52.600;7.318;2023-04-29T01:21:07;101123.86;;;9.43;100.00
47811;BME280;33575;52.600;7.318;2023-04-29T01:23:37;101130.16;;;9.57;100.00
47811;BME280;33575;52.600;7.318;2023-04-29T01:26:07;101128.22;;;9.52;100.00
47811;BME280;33575;52.600;7.318;2023-04-29T01:28:44;101130.52;;;9.48;100.00
47811;BME280;33575;52.600;7.318;2023-04-29T01:31:12;101127.02;;;9.51;100.00
47811;BME280;33575;52.600;7.318;2023-04-29T01:33:43;101129.23;;;9.57;100.00
47811;BME280;33575;52.600;7.318;2023-04-29T01:36:17;101129.15;;;9.19;100.00
47811;BME280;33575;52.600;7.318;2023-04-29T01:38:43;101132.58;;;9.22;100.00
47811;BME280;33575;52.600;7.318;2023-04-29T01:41:13;101138.17;;;9.49;100.00
47811;BME280;33575;52.600;7.318;2023-04-29T01:43:40;101141.27;;;9.34;100.00
47811;BME280;33575;52.600;7.318;2023-04-29T01:46:12;101149.31;;;9.25;100.00
47811;BME280;33575;52.600;7.318;2023-04-29T01:48:41;101151.74;;;9.27;100.00
47811;BME280;33575;52.600;7.318;2023-04-29T01:51:12;101152.77;;;9.26;100.00
47811;BME280;33575;52.600;7.318;2023-04-29T01:53:42;101157.11;;;9.35;100.00
47811;BME280;33575;52.600;7.318;2023-04-29T01:56:13;101161.38;;;9.38;100.00
47811;BME280;33575;52.600;7.318;2023-04-29T01:58:43;101161.88;;;9.32;100.00
47811;BME280;33575;52.600;7.318;2023-04-29T02:01:14;101167.70;;;9.39;100.00
47811;BME280;33575;52.600;7.318;2023-04-29T02:03:44;101175.25;;;9.33;100.00
47811;BME280;33575;52.600;7.318;2023-04-29T02:06:14;101175.45;;;9.20;100.00
47811;BME280;33575;52.600;7.318;2023-04-29T02:08:44;101182.35;;;9.07;100.00
47811;BME280;33575;52.600;7.318;2023-04-29T02:11:15;101186.32;;;8.90;100.00
47811;BME280;33575;52.600;7.318;2023-04-29T02:13:45;101188.58;;;8.87;100.00
47811;BME280;33575;52.600;7.318;2023-04-29T02:16:16;101190.29;;;8.93;100.00
47811;BME280;33575;52.600;7.318;2023-04-29T02:18:46;101190.89;;;8.90;100.00
47811;BME280;33575;52.600;7.318;2023-04-29T02:21:17;101190.14;;;8.93;100.00
47811;BME280;33575;52.600;7.318;2023-04-29T02:23:47;101197.48;;;8.93;100.00
47811;BME280;33575;52.600;7.318;2023-04-29T02:26:19;101202.57;;;8.98;100.00
47811;BME280;33575;52.600;7.318;2023-04-29T02:28:49;101200.35;;;8.86;100.00
47811;BME280;33575;52.600;7.318;2023-04-29T02:31:19;101206.24;;;8.62;100.00
47811;BME280;33575;52.600;7.318;2023-04-29T02:33:49;101209.30;;;8.72;100.00
47811;BME280;33575;52.600;7.318;2023-04-29T02:36:19;101214.95;;;8.79;100.00
47811;BME280;33575;52.600;7.318;2023-04-29T02:38:49;101214.63;;;8.77;100.00
47811;BME280;33575;52.600;7.318;2023-04-29T02:41:20;101216.15;;;8.85;100.00
47811;BME280;33575;52.600;7.318;2023-04-29T02:43:50;101217.48;;;8.88;100.00
47811;BME280;33575;52.600;7.318;2023-04-29T02:46:21;101221.60;;;9.01;100.00
47811;BME280;33575;52.600;7.318;2023-04-29T02:48:51;101222.56;;;8.92;100.00
47811;BME280;33575;52.600;7.318;2023-04-29T02:51:22;101226.44;;;9.16;100.00
47811;BME280;33575;52.600;7.318;2023-04-29T02:53:52;101230.17;;;9.04;100.00
47811;BME280;33575;52.600;7.318;2023-04-29T02:56:23;101233.12;;;9.08;100.00
47811;BME280;33575;52.600;7.318;2023-04-29T02:58:53;101238.50;;;9.13;100.00
47811;BME280;33575;52.600;7.318;2023-04-29T03:01:24;101244.57;;;9.27;100.00
47811;BME280;33575;52.600;7.318;2023-04-29T03:03:55;101245.59;;;9.35;100.00
47811;BME280;33575;52.600;7.318;2023-04-29T03:06:25;101244.02;;;8.95;100.00
47811;BME280;33575;52.600;7.318;2023-04-29T03:08:56;101244.63;;;8.96;100.00
47811;BME280;33575;52.600;7.318;2023-04-29T03:11:26;101245.41;;;8.99;100.00
47811;BME280;33575;52.600;7.318;2023-04-29T03:13:56;101246.34;;;9.13;100.00
47811;BME280;33575;52.600;7.318;2023-04-29T03:16:27;101246.68;;;9.21;100.00
47811;BME280;33575;52.600;7.318;2023-04-29T03:18:57;101251.65;;;9.21;100.00
47811;BME280;33575;52.600;7.318;2023-04-29T03:21:28;101254.47;;;9.22;100.00
47811;BME280;33575;52.600;7.318;2023-04-29T03:23:59;101255.98;;;9.19;100.00
47811;BME280;33575;52.600;7.318;2023-04-29T03:26:29;101262.00;;;9.06;100.00
47811;BME280;33575;52.600;7.318;2023-04-29T03:29:00;101263.20;;;9.20;100.00
47811;BME280;33575;52.600;7.318;2023-04-29T03:31:30;101265.79;;;9.18;100.00
47811;BME280;33575;52.600;7.318;2023-04-29T03:34:00;101267.89;;;9.30;100.00
47811;BME280;33575;52.600;7.318;2023-04-29T03:36:31;101267.34;;;9.20;100.00
47811;BME280;33575;52.600;7.318;2023-04-29T03:39:02;101269.07;;;9.16;100.00
47811;BME280;33575;52.600;7.318;2023-04-29T03:41:32;101267.49;;;9.14;100.00
47811;BME280;33575;52.600;7.318;2023-04-29T03:44:03;101272.94;;;8.88;100.00
47811;BME280;33575;52.600;7.318;2023-04-29T03:46:33;101278.53;;;8.95;100.00
47811;BME280;33575;52.600;7.318;2023-04-29T03:49:03;101282.34;;;8.89;100.00
47811;BME280;33575;52.600;7.318;2023-04-29T03:51:34;101281.36;;;8.99;100.00
47811;BME280;33575;52.600;7.318;2023-04-29T03:54:04;101284.34;;;8.97;100.00
47811;BME280;33575;52.600;7.318;2023-04-29T03:56:35;101287.86;;;8.91;100.00
47811;BME280;33575;52.600;7.318;2023-04-29T03:59:05;101292.00;;;8.57;100.00
47811;BME280;33575;52.600;7.318;2023-04-29T04:01:35;101297.92;;;8.57;100.00
47811;BME280;33575;52.600;7.318;2023-04-29T04:04:06;101300.47;;;8.58;100.00
47811;BME280;33575;52.600;7.318;2023-04-29T04:06:36;101304.29;;;8.44;100.00
47811;BME280;33575;52.600;7.318;2023-04-29T04:09:06;101305.63;;;8.39;100.00
47811;BME280;33575;52.600;7.318;2023-04-29T04:11:36;101311.01;;;8.57;100.00
47811;BME280;33575;52.600;7.318;2023-04-29T04:14:07;101318.38;;;8.40;100.00
47811;BME280;33575;52.600;7.318;2023-04-29T04:16:37;101321.44;;;8.51;100.00
47811;BME280;33575;52.600;7.318;2023-04-29T04:19:08;101321.89;;;8.63;100.00
47811;BME280;33575;52.600;7.318;2023-04-29T04:21:38;101328.20;;;8.39;100.00
47811;BME280;33575;52.600;7.318;2023-04-29T04:24:09;101331.07;;;8.57;100.00
47811;BME280;33575;52.600;7.318;2023-04-29T04:26:39;101336.55;;;8.47;100.00
47811;BME280;33575;52.600;7.318;2023-04-29T04:29:10;101341.67;;;8.20;100.00
47811;BME280;33575;52.600;7.318;2023-04-29T04:31:40;101342.77;;;8.45;100.00
47811;BME280;33575;52.600;7.318;2023-04-29T04:34:10;101347.17;;;8.23;100.00
47811;BME280;33575;52.600;7.318;2023-04-29T04:36:40;101350.45;;;8.29;100.00
47811;BME280;33575;52.600;7.318;2023-04-29T04:39:11;101355.47;;;8.33;100.00
47811;BME280;33575;52.600;7.318;2023-04-29T04:41:41;101360.11;;;8.38;100.00
47811;BME280;33575;52.600;7.318;2023-04-29T04:44:11;101364.48;;;8.11;100.00
47811;BME280;33575;52.600;7.318;2023-04-29T04:46:42;101372.74;;;8.34;100.00
47811;BME280;33575;52.600;7.318;2023-04-29T04:49:12;101374.35;;;8.30;100.00
47811;BME280;33575;52.600;7.318;2023-04-29T04:51:43;101372.86;;;7.98;100.00
47811;BME280;33575;52.600;7.318;2023-04-29T04:54:13;101373.54;;;8.11;100.00
47811;BME280;33575;52.600;7.318;2023-04-29T04:56:44;101375.29;;;8.10;100.00
47811;BME280;33575;52.600;7.318;2023-04-29T04:59:14;101381.43;;;8.08;100.00
47811;BME280;33575;52.600;7.318;2023-04-29T05:01:44;101388.98;;;8.05;100.00
47811;BME280;33575;52.600;7.318;2023-04-29T05:04:15;101389.34;;;8.17;100.00
47811;BME280;33575;52.600;7.318;2023-04-29T05:06:45;101393.29;;;8.23;100.00
47811;BME280;33575;52.600;7.318;2023-04-29T05:09:16;101397.89;;;8.33;100.00
47811;BME280;33575;52.600;7.318;2023-04-29T05:11:46;101402.42;;;8.37;100.00
47811;BME280;33575;52.600;7.318;2023-04-29T05:14:16;101404.22;;;7.99;100.00
47811;BME280;33575;52.600;7.318;2023-04-29T05:16:47;101410.95;;;8.07;100.00
47811;BME280;33575;52.600;7.318;2023-04-29T05:19:18;101412.47;;;8.15;100.00
47811;BME280;33575;52.600;7.318;2023-04-29T05:21:48;101417.71;;;8.06;100.00
47811;BME280;33575;52.600;7.318;2023-04-29T05:24:18;101420.10;;;8.31;100.00
47811;BME280;33575;52.600;7.318;2023-04-29T05:26:49;101422.45;;;8.23;100.00
47811;BME280;33575;52.600;7.318;2023-04-29T05:29:19;101427.31;;;8.39;100.00
47811;BME280;33575;52.600;7.318;2023-04-29T05:31:50;101429.34;;;8.41;100.00
47811;BME280;33575;52.600;7.318;2023-04-29T05:34:20;101432.20;;;8.39;100.00
47811;BME280;33575;52.600;7.318;2023-04-29T05:36:51;101432.80;;;8.45;100.00
47811;BME280;33575;52.600;7.318;2023-04-29T05:39:22;101435.55;;;8.23;100.00
47811;BME280;33575;52.600;7.318;2023-04-29T05:41:52;101438.83;;;8.33;100.00
47811;BME280;33575;52.600;7.318;2023-04-29T05:44:22;101441.00;;;8.46;100.00
47811;BME280;33575;52.600;7.318;2023-04-29T05:46:53;101447.08;;;8.42;100.00
47811;BME280;33575;52.600;7.318;2023-04-29T05:49:24;101451.55;;;8.16;100.00
47811;BME280;33575;52.600;7.318;2023-04-29T05:51:55;101457.91;;;8.37;100.00
47811;BME280;33575;52.600;7.318;2023-04-29T05:54:25;101461.30;;;8.44;100.00
47811;BME280;33575;52.600;7.318;2023-04-29T05:56:56;101462.10;;;8.43;100.00
47811;BME280;33575;52.600;7.318;2023-04-29T05:59:27;101462.73;;;8.39;100.00
47811;BME280;33575;52.600;7.318;2023-04-29T06:01:58;101469.69;;;8.19;100.00
47811;BME280;33575;52.600;7.318;2023-04-29T06:04:29;101469.78;;;8.27;100.00
47811;BME280;33575;52.600;7.318;2023-04-29T06:06:59;101471.67;;;8.52;100.00
47811;BME280;33575;52.600;7.318;2023-04-29T06:09:29;101478.30;;;8.31;100.00
47811;BME280;33575;52.600;7.318;2023-04-29T06:12:00;101480.73;;;8.34;100.00
47811;BME280;33575;52.600;7.318;2023-04-29T06:14:30;101486.74;;;8.15;100.00
47811;BME280;33575;52.600;7.318;2023-04-29T06:17:00;101487.95;;;8.38;100.00
47811;BME280;33575;52.600;7.318;2023-04-29T06:19:31;101491.65;;;8.51;100.00
47811;BME280;33575;52.600;7.318;2023-04-29T06:22:01;101488.83;;;8.42;100.00
47811;BME280;33575;52.600;7.318;2023-04-29T06:24:31;101491.41;;;8.37;100.00
47811;BME280;33575;52.600;7.318;2023-04-29T06:27:02;101501.71;;;8.27;100.00
47811;BME280;33575;52.600;7.318;2023-04-29T06:29:32;101504.83;;;8.32;100.00
47811;BME280;33575;52.600;7.318;2023-04-29T06:32:03;101501.74;;;8.40;100.00
47811;BME280;33575;52.600;7.318;2023-04-29T06:34:33;101501.49;;;8.30;100.00
47811;BME280;33575;52.600;7.318;2023-04-29T06:37:04;101505.25;;;8.34;100.00
47811;BME280;33575;52.600;7.318;2023-04-29T06:39:34;101516.16;;;8.39;100.00
47811;BME280;33575;52.600;7.318;2023-04-29T06:42:05;101523.83;;;8.40;100.00
47811;BME280;33575;52.600;7.318;2023-04-29T06:44:35;101520.66;;;8.46;100.00
47811;BME280;33575;52.600;7.318;2023-04-29T06:47:06;101528.33;;;8.45;100.00
47811;BME280;33575;52.600;7.318;2023-04-29T06:49:36;101533.52;;;8.34;100.00
47811;BME280;33575;52.600;7.318;2023-04-29T06:52:07;101539.21;;;8.40;100.00
47811;BME280;33575;52.600;7.318;2023-04-29T06:54:37;101541.18;;;8.53;100.00
47811;BME280;33575;52.600;7.318;2023-04-29T06:57:08;101547.28;;;8.54;100.00
47811;BME280;33575;52.600;7.318;2023-04-29T06:59:39;101546.05;;;8.61;100.00
47811;BME280;33575;52.600;7.318;2023-04-29T07:02:09;101551.07;;;8.69;100.00
47811;BME280;33575;52.600;7.318;2023-04-29T07:04:40;101551.04;;;8.26;100.00
47811;BME280;33575;52.600;7.318;2023-04-29T07:07:11;101556.48;;;8.56;100.00
47811;BME280;33575;52.600;7.318;2023-04-29T07:09:41;101557.83;;;8.55;100.00
47811;BME280;33575;52.600;7.318;2023-04-29T07:12:11;101558.84;;;8.76;100.00
47811;BME280;33575;52.600;7.318;2023-04-29T07:14:42;101561.40;;;8.83;100.00
47811;BME280;33575;52.600;7.318;2023-04-29T07:17:15;101564.02;;;8.77;100.00
47811;BME280;33575;52.600;7.318;2023-04-29T07:19:43;101571.51;;;8.87;100.00
47811;BME280;33575;52.600;7.318;2023-04-29T07:22:14;101576.23;;;8.72;100.00
47811;BME280;33575;52.600;7.318;2023-04-29T07:24:44;101578.58;;;8.72;100.00
47811;BME280;33575;52.600;7.318;2023-04-29T07:27:14;101579.68;;;8.60;100.00
47811;BME280;33575;52.600;7.318;2023-04-29T07:29:44;101584.50;;;8.72;99.78
47811;BME280;33575;52.600;7.318;2023-04-29T07:32:15;101588.47;;;8.85;100.00
47811;BME280;33575;52.600;7.318;2023-04-29T07:34:46;101591.97;;;8.87;99.08
47811;BME280;33575;52.600;7.318;2023-04-29T07:37:16;101593.29;;;8.68;100.00
47811;BME280;33575;52.600;7.318;2023-04-29T07:39:47;101591.23;;;8.72;99.95
47811;BME280;33575;52.600;7.318;2023-04-29T07:42:17;101591.68;;;8.83;100.00
47811;BME280;33575;52.600;7.318;2023-04-29T07:44:47;101594.76;;;9.00;100.00
47811;BME280;33575;52.600;7.318;2023-04-29T07:47:18;101597.17;;;9.30;99.60
47811;BME280;33575;52.600;7.318;2023-04-29T07:49:48;101603.55;;;9.20;98.88
47811;BME280;33575;52.600;7.318;2023-04-29T07:52:18;101605.11;;;9.37;98.12
47811;BME280;33575;52.600;7.318;2023-04-29T07:54:49;101606.07;;;9.32;98.44
47811;BME280;33575;52.600;7.318;2023-04-29T07:57:19;101608.81;;;9.47;97.99
47811;BME280;33575;52.600;7.318;2023-04-29T07:59:51;101616.73;;;9.35;98.23
47811;BME280;33575;52.600;7.318;2023-04-29T08:02:21;101612.14;;;9.63;97.30
47811;BME280;33575;52.600;7.318;2023-04-29T08:04:51;101619.74;;;9.74;97.45
47811;BME280;33575;52.600;7.318;2023-04-29T08:07:21;101629.19;;;9.91;97.71
47811;BME280;33575;52.600;7.318;2023-04-29T08:09:51;101637.92;;;10.04;95.73
47811;BME280;33575;52.600;7.318;2023-04-29T08:12:21;101642.81;;;9.97;94.18
47811;BME280;33575;52.600;7.318;2023-04-29T08:14:52;101645.34;;;10.06;96.31
47811;BME280;33575;52.600;7.318;2023-04-29T08:17:23;101649.41;;;9.94;96.49
47811;BME280;33575;52.600;7.318;2023-04-29T08:19:53;101653.41;;;10.10;95.33
47811;BME280;33575;52.600;7.318;2023-04-29T08:22:24;101657.06;;;10.10;94.40
47811;BME280;33575;52.600;7.318;2023-04-29T08:24:55;101660.85;;;10.09;95.25
47811;BME280;33575;52.600;7.318;2023-04-29T08:27:25;101667.23;;;10.12;96.02
47811;BME280;33575;52.600;7.318;2023-04-29T08:29:55;101668.41;;;10.40;94.92
47811;BME280;33575;52.600;7.318;2023-04-29T08:32:25;101674.68;;;10.30;94.47
47811;BME280;33575;52.600;7.318;2023-04-29T08:34:56;101675.84;;;10.49;93.38
47811;BME280;33575;52.600;7.318;2023-04-29T08:37:26;101677.06;;;10.33;93.01
47811;BME280;33575;52.600;7.318;2023-04-29T08:39:56;101675.90;;;10.56;92.64
47811;BME280;33575;52.600;7.318;2023-04-29T08:42:32;101672.82;;;10.59;91.08
47811;BME280;33575;52.600;7.318;2023-04-29T08:44:59;101675.09;;;10.79;92.28
47811;BME280;33575;52.600;7.318;2023-04-29T08:47:29;101678.20;;;10.78;91.53
47811;BME280;33575;52.600;7.318;2023-04-29T08:50:02;101680.78;;;10.93;90.78
47811;BME280;33575;52.600;7.318;2023-04-29T08:52:28;101683.48;;;11.08;89.76
47811;BME280;33575;52.600;7.318;2023-04-29T08:54:59;101685.09;;;11.03;89.17
47811;BME280;33575;52.600;7.318;2023-04-29T08:57:30;101687.09;;;11.17;89.54
47811;BME280;33575;52.600;7.318;2023-04-29T09:00:00;101691.06;;;10.98;89.13
47811;BME280;33575;52.600;7.318;2023-04-29T09:02:30;101689.78;;;11.23;89.33
47811;BME280;33575;52.600;7.318;2023-04-29T09:05:04;101686.50;;;11.28;87.14
47811;BME280;33575;52.600;7.318;2023-04-29T09:07:31;101689.66;;;11.24;88.55
47811;BME280;33575;52.600;7.318;2023-04-29T09:10:03;101690.56;;;11.41;88.56
47811;BME280;33575;52.600;7.318;2023-04-29T09:12:31;101694.14;;;11.41;89.04
47811;BME280;33575;52.600;7.318;2023-04-29T09:15:02;101694.16;;;11.39;87.00
47811;BME280;33575;52.600;7.318;2023-04-29T09:17:38;101693.45;;;11.39;87.15
47811;BME280;33575;52.600;7.318;2023-04-29T09:22:46;101705.51;;;11.49;88.27
47811;BME280;33575;52.600;7.318;2023-04-29T09:25:12;101707.01;;;11.54;84.45
47811;BME280;33575;52.600;7.318;2023-04-29T09:27:34;101711.92;;;11.49;85.56
47811;BME280;33575;52.600;7.318;2023-04-29T09:30:05;101714.99;;;11.36;85.04
47811;BME280;33575;52.600;7.318;2023-04-29T09:32:37;101713.20;;;11.53;84.48
47811;BME280;33575;52.600;7.318;2023-04-29T09:37:35;101719.90;;;11.47;84.57
47811;BME280;33575;52.600;7.318;2023-04-29T09:40:07;101718.42;;;11.59;83.73
47811;BME280;33575;52.600;7.318;2023-04-29T09:42:41;101718.95;;;11.64;84.94
47811;BME280;33575;52.600;7.318;2023-04-29T09:45:08;101719.36;;;11.89;83.23
47811;BME280;33575;52.600;7.318;2023-04-29T09:47:37;101725.36;;;11.96;83.40
47811;BME280;33575;52.600;7.318;2023-04-29T09:50:10;101728.16;;;12.15;80.24
47811;BME280;33575;52.600;7.318;2023-04-29T09:52:39;101732.02;;;12.17;81.16
47811;BME280;33575;52.600;7.318;2023-04-29T09:55:10;101733.50;;;12.22;80.51
47811;BME280;33575;52.600;7.318;2023-04-29T09:57:39;101729.18;;;12.31;79.55
47811;BME280;33575;52.600;7.318;2023-04-29T10:00:11;101738.28;;;12.37;79.44
47811;BME280;33575;52.600;7.318;2023-04-29T10:02:41;101738.56;;;12.31;79.34
47811;BME280;33575;52.600;7.318;2023-04-29T10:05:12;101729.98;;;12.57;78.34
47811;BME280;33575;52.600;7.318;2023-04-29T10:07:42;101733.67;;;12.66;78.93
47811;BME280;33575;52.600;7.318;2023-04-29T10:10:12;101736.63;;;12.74;77.94
47811;BME280;33575;52.600;7.318;2023-04-29T10:12:43;101735.64;;;12.78;77.46
47811;BME280;33575;52.600;7.318;2023-04-29T10:15:21;101736.20;;;12.89;76.93
47811;BME280;33575;52.600;7.318;2023-04-29T10:17:47;101735.39;;;13.14;78.26
47811;BME280;33575;52.600;7.318;2023-04-29T10:20:20;101741.56;;;13.12;77.14
47811;BME280;33575;52.600;7.318;2023-04-29T10:22:46;101739.78;;;13.41;75.90
47811;BME280;33575;52.600;7.318;2023-04-29T10:25:17;101746.39;;;13.57;76.91
47811;BME280;33575;52.600;7.318;2023-04-29T10:27:47;101739.04;;;13.63;76.50
47811;BME280;33575;52.600;7.318;2023-04-29T10:30:17;101741.31;;;13.54;75.48
47811;BME280;33575;52.600;7.318;2023-04-29T10:32:50;101739.84;;;13.77;75.89
47811;BME280;33575;52.600;7.318;2023-04-29T10:35:18;101737.36;;;13.97;74.67
47811;BME280;33575;52.600;7.318;2023-04-29T10:37:47;101738.05;;;13.94;72.66
47811;BME280;33575;52.600;7.318;2023-04-29T10:40:21;101739.52;;;13.80;74.48
47811;BME280;33575;52.600;7.318;2023-04-29T10:42:49;101739.92;;;13.94;73.60
47811;BME280;33575;52.600;7.318;2023-04-29T10:45:20;101740.89;;;13.78;73.34
47811;BME280;33575;52.600;7.318;2023-04-29T10:50:19;101738.05;;;14.00;74.03
47811;BME280;33575;52.600;7.318;2023-04-29T10:52:50;101739.86;;;13.95;74.27
47811;BME280;33575;52.600;7.318;2023-04-29T10:55:20;101738.07;;;13.84;73.62
47811;BME280;33575;52.600;7.318;2023-04-29T10:57:51;101742.09;;;13.98;74.57
47811;BME280;33575;52.600;7.318;2023-04-29T11:00:21;101741.80;;;14.07;73.23
47811;BME280;33575;52.600;7.318;2023-04-29T11:02:50;101745.96;;;13.94;74.49
47811;BME280;33575;52.600;7.318;2023-04-29T11:05:28;101747.04;;;13.69;73.26
47811;BME280;33575;52.600;7.318;2023-04-29T11:15:22;101749.15;;;13.96;72.77
47811;BME280;33575;52.600;7.318;2023-04-29T11:17:57;101756.15;;;14.00;73.12
47811;BME280;33575;52.600;7.318;2023-04-29T11:20:23;101753.56;;;14.08;72.98
47811;BME280;33575;52.600;7.318;2023-04-29T11:22:54;101752.78;;;14.14;71.90
47811;BME280;33575;52.600;7.318;2023-04-29T11:25:24;101756.31;;;14.07;70.96
47811;BME280;33575;52.600;7.318;2023-04-29T11:27:54;101759.42;;;13.88;70.53
47811;BME280;33575;52.600;7.318;2023-04-29T11:30:25;101757.01;;;13.94;71.75
47811;BME280;33575;52.600;7.318;2023-04-29T11:32:58;101753.62;;;14.29;71.98
47811;BME280;33575;52.600;7.318;2023-04-29T11:35:25;101751.83;;;14.55;72.74
47811;BME280;33575;52.600;7.318;2023-04-29T11:37:59;101751.84;;;14.41;71.51
47811;BME280;33575;52.600;7.318;2023-04-29T11:40:26;101759.15;;;14.37;72.19
47811;BME280;33575;52.600;7.318;2023-04-29T11:42:56;101755.68;;;14.33;73.16
47811;BME280;33575;52.600;7.318;2023-04-29T11:45:27;101759.00;;;14.19;73.62
47811;BME280;33575;52.600;7.318;2023-04-29T11:47:57;101766.97;;;13.84;74.80
47811;BME280;33575;52.600;7.318;2023-04-29T11:50:28;101769.93;;;13.84;76.26
47811;BME280;33575;52.600;7.318;2023-04-29T11:52:58;101762.33;;;14.10;74.56
47811;BME280;33575;52.600;7.318;2023-04-29T11:55:29;101765.55;;;14.08;73.15
47811;BME280;33575;52.600;7.318;2023-04-29T11:57:59;101766.70;;;14.03;70.39
47811;BME280;33575;52.600;7.318;2023-04-29T12:00:30;101764.51;;;14.02;70.83
47811;BME280;33575;52.600;7.318;2023-04-29T12:03:00;101762.56;;;14.14;71.64
47811;BME280;33575;52.600;7.318;2023-04-29T12:05:30;101758.53;;;14.37;73.25
47811;BME280;33575;52.600;7.318;2023-04-29T12:08:00;101761.58;;;14.39;72.46
47811;BME280;33575;52.600;7.318;2023-04-29T12:10:31;101767.15;;;14.12;75.40
47811;BME280;33575;52.600;7.318;2023-04-29T12:13:02;101777.11;;;13.87;72.35
47811;BME280;33575;52.600;7.318;2023-04-29T12:15:32;101770.88;;;13.90;74.57
47811;BME280;33575;52.600;7.318;2023-04-29T12:18:02;101762.89;;;14.10;74.00
47811;BME280;33575;52.600;7.318;2023-04-29T12:20:32;101768.32;;;14.16;72.05
47811;BME280;33575;52.600;7.318;2023-04-29T12:23:10;101763.94;;;14.27;71.02
47811;BME280;33575;52.600;7.318;2023-04-29T12:25:33;101769.78;;;14.22;69.46
47811;BME280;33575;52.600;7.318;2023-04-29T12:28:03;101771.62;;;13.74;69.68
47811;BME280;33575;52.600;7.318;2023-04-29T12:30:34;101773.78;;;13.61;71.30
47811;BME280;33575;52.600;7.318;2023-04-29T12:33:07;101770.69;;;14.00;71.73
47811;BME280;33575;52.600;7.318;2023-04-29T12:35:35;101770.47;;;14.23;69.62
47811;BME280;33575;52.600;7.318;2023-04-29T12:38:05;101774.63;;;14.33;68.56
47811;BME280;33575;52.600;7.318;2023-04-29T12:40:35;101774.37;;;14.47;67.84
47811;BME280;33575;52.600;7.318;2023-04-29T12:43:07;101767.91;;;14.54;68.15
47811;BME280;33575;52.600;7.318;2023-04-29T12:45:37;101771.14;;;14.57;67.04
47811;BME280;33575;52.600;7.318;2023-04-29T12:48:11;101772.07;;;14.32;67.57
47811;BME280;33575;52.600;7.318;2023-04-29T12:50:38;101772.04;;;14.37;66.82
47811;BME280;33575;52.600;7.318;2023-04-29T12:53:08;101766.57;;;14.46;66.45
47811;BME280;33575;52.600;7.318;2023-04-29T12:55:37;101768.25;;;14.52;65.78
47811;BME280;33575;52.600;7.318;2023-04-29T12:58:07;101763.59;;;14.54;66.19
47811;BME280;33575;52.600;7.318;2023-04-29T13:00:38;101764.82;;;14.68;67.20
47811;BME280;33575;52.600;7.318;2023-04-29T13:03:08;101773.77;;;14.57;65.92
47811;BME280;33575;52.600;7.318;2023-04-29T13:05:38;101775.19;;;14.37;66.28
47811;BME280;33575;52.600;7.318;2023-04-29T13:08:09;101770.33;;;14.57;65.82
47811;BME280;33575;52.600;7.318;2023-04-29T13:10:39;101770.28;;;14.70;65.86
47811;BME280;33575;52.600;7.318;2023-04-29T13:13:10;101771.69;;;14.73;66.58
47811;BME280;33575;52.600;7.318;2023-04-29T13:15:40;101768.97;;;14.78;66.34
47811;BME280;33575;52.600;7.318;2023-04-29T13:18:11;101774.42;;;14.71;65.84
47811;BME280;33575;52.600;7.318;2023-04-29T13:20:43;101771.74;;;14.88;65.04